createdAt,value
2018-01-07T13:41:40.008Z,3.17
2018-01-07T13:42:40.018Z,3.24
2018-01-07T13:43:40.029Z,3.17
2018-01-07T13:44:40.040Z,3.17
2018-01-07T13:45:40.037Z,3.13
2018-01-07T13:46:40.050Z,3.06
2018-01-07T13:47:40.061Z,3.11
2018-01-07T13:48:40.071Z,3.14
2018-01-07T13:49:40.082Z,3.13
2018-01-07T13:50:40.090Z,3.00
2018-01-07T13:51:40.102Z,3.10
2018-01-07T13:52:40.119Z,3.10
2018-01-07T13:53:40.130Z,3.14
2018-01-07T13:54:40.134Z,3.15
2018-01-07T13:55:40.146Z,3.08
2018-01-07T13:56:40.159Z,3.05
2018-01-07T13:57:40.166Z,3.00
2018-01-07T13:58:40.177Z,2.99
2018-01-07T13:59:40.195Z,3.02
2018-01-07T14:00:40.199Z,2.89
2018-01-07T14:01:40.212Z,2.90
2018-01-07T14:02:40.221Z,2.89
2018-01-07T14:03:40.234Z,2.87
2018-01-07T14:04:40.242Z,2.87
2018-01-07T14:05:40.553Z,2.90
2018-01-07T14:06:40.265Z,2.74
2018-01-07T14:07:40.280Z,2.71
2018-01-07T14:08:40.283Z,2.81
2018-01-07T14:09:40.317Z,2.84
2018-01-07T14:10:40.305Z,2.85
2018-01-07T14:11:40.315Z,2.85
2018-01-07T14:12:40.328Z,2.78
2018-01-07T14:13:40.334Z,2.75
2018-01-07T14:14:40.354Z,2.87
2018-01-07T14:15:40.360Z,2.75
2018-01-07T14:16:40.367Z,2.75
2018-01-07T14:17:40.387Z,2.77
2018-01-07T14:18:40.402Z,2.89
2018-01-07T14:19:40.401Z,2.84
2018-01-07T14:20:40.439Z,2.85
2018-01-07T14:21:40.418Z,2.90
2018-01-07T14:22:40.430Z,2.78
2018-01-07T14:23:40.441Z,2.77
2018-01-07T14:24:40.449Z,2.77
2018-01-07T14:25:40.462Z,2.78
2018-01-07T14:26:40.472Z,2.79
2018-01-07T14:27:40.482Z,2.78
2018-01-07T14:28:40.491Z,2.81
2018-01-07T14:29:40.503Z,2.72
2018-01-07T14:30:40.512Z,2.77
2018-01-07T14:31:40.524Z,2.77
2018-01-07T14:32:40.534Z,2.77
2018-01-07T14:33:40.544Z,2.74
2018-01-07T14:34:40.556Z,2.77
2018-01-07T14:35:40.567Z,2.77
2018-01-07T14:36:40.579Z,2.71
2018-01-07T14:37:40.599Z,2.71
2018-01-07T14:38:40.598Z,2.67
2018-01-07T14:39:40.616Z,2.63
2018-01-07T14:40:40.642Z,2.71
2018-01-07T14:41:40.684Z,2.59
2018-01-07T14:42:40.644Z,2.64
2018-01-07T14:43:40.649Z,2.66
2018-01-07T14:44:40.659Z,2.64
2018-01-07T14:45:40.669Z,2.61
2018-01-07T14:46:40.684Z,2.63
2018-01-07T14:47:40.691Z,2.60
2018-01-07T14:48:40.700Z,2.66
2018-01-07T14:49:40.711Z,2.67
2018-01-07T14:50:40.723Z,2.66
2018-01-07T14:51:40.732Z,2.67
2018-01-07T14:52:40.742Z,2.63
2018-01-07T14:53:40.752Z,2.60
2018-01-07T14:54:40.765Z,2.59
2018-01-07T14:55:40.775Z,2.57
2018-01-07T14:56:40.787Z,2.66
2018-01-07T14:57:40.794Z,2.72
2018-01-07T14:58:40.822Z,2.61
2018-01-07T14:59:40.814Z,2.61
2018-01-07T15:00:40.824Z,2.56
2018-01-07T15:01:40.838Z,2.60
2018-01-07T15:02:40.846Z,2.43
2018-01-07T15:03:40.859Z,2.46
2018-01-07T15:04:40.869Z,2.46
2018-01-07T15:05:40.878Z,2.46
2018-01-07T15:06:40.897Z,2.48
2018-01-07T15:07:40.907Z,2.46
2018-01-07T15:08:40.911Z,2.43
2018-01-07T15:09:40.919Z,2.42
2018-01-07T15:10:40.934Z,2.43
2018-01-07T15:11:40.945Z,2.42
2018-01-07T15:12:40.953Z,2.48
2018-01-07T15:13:40.960Z,2.43
2018-01-07T15:14:40.983Z,2.45
2018-01-07T15:15:40.981Z,2.42
2018-01-07T15:16:40.992Z,2.42
2018-01-07T15:17:41.003Z,2.28
2018-01-07T15:18:41.013Z,2.30
2018-01-07T15:19:41.027Z,2.34
2018-01-07T15:20:41.040Z,2.31
2018-01-07T15:21:41.044Z,2.41
2018-01-07T15:22:41.056Z,2.21
2018-01-07T15:23:41.067Z,2.21
2018-01-07T15:24:41.074Z,2.23
2018-01-07T15:25:41.083Z,2.24
2018-01-07T15:26:41.091Z,2.16
2018-01-07T15:27:41.105Z,2.18
2018-01-07T15:28:41.113Z,2.20
2018-01-07T15:29:41.127Z,2.18
2018-01-07T15:30:41.137Z,2.24
2018-01-07T15:31:41.144Z,2.10
2018-01-07T15:32:41.156Z,2.17
2018-01-07T15:33:41.166Z,2.20
2018-01-07T15:34:41.184Z,2.09
2018-01-07T15:35:41.215Z,2.16
2018-01-07T15:36:41.194Z,2.14
2018-01-07T15:37:41.208Z,2.16
2018-01-07T15:38:41.215Z,2.10
2018-01-07T15:39:41.223Z,2.10
2018-01-07T15:40:41.236Z,2.12
2018-01-07T15:41:41.252Z,2.16
2018-01-07T15:42:41.255Z,2.16
2018-01-07T15:43:41.282Z,2.16
2018-01-07T15:44:41.279Z,2.16
2018-01-07T15:45:41.287Z,2.09
2018-01-07T15:46:41.297Z,2.14
2018-01-07T15:47:41.307Z,2.00
2018-01-07T15:48:41.313Z,2.02
2018-01-07T15:49:41.326Z,1.99
2018-01-07T15:50:41.336Z,2.00
2018-01-07T15:51:41.347Z,2.03
2018-01-07T15:52:41.360Z,2.00
2018-01-07T15:53:41.385Z,2.06
2018-01-07T15:54:41.378Z,2.09
2018-01-07T15:55:41.388Z,1.99
2018-01-07T15:56:41.398Z,2.02
2018-01-07T15:57:41.407Z,1.95
2018-01-07T15:58:41.417Z,2.00
2018-01-07T15:59:41.424Z,2.05
2018-01-07T16:00:41.448Z,2.00
2018-01-07T16:01:41.446Z,2.03
2018-01-07T16:02:41.455Z,1.93
2018-01-07T16:03:41.470Z,1.95
2018-01-07T16:04:41.481Z,2.00
2018-01-07T16:05:41.487Z,1.99
2018-01-07T16:06:41.497Z,2.05
2018-01-07T16:07:41.506Z,1.95
2018-01-07T16:08:41.515Z,2.03
2018-01-07T16:09:41.525Z,1.98
2018-01-07T16:10:41.610Z,2.00
2018-01-07T16:11:41.546Z,1.99
2018-01-07T16:12:41.560Z,1.98
2018-01-07T16:13:41.567Z,1.93
2018-01-07T16:14:41.578Z,2.00
2018-01-07T16:15:41.587Z,1.86
2018-01-07T16:16:41.595Z,1.83
2018-01-07T16:17:41.607Z,1.86
2018-01-07T16:18:41.616Z,1.87
2018-01-07T16:19:41.639Z,1.86
2018-01-07T16:20:41.636Z,1.87
2018-01-07T16:21:41.649Z,1.79
2018-01-07T16:22:41.655Z,1.86
2018-01-07T16:23:41.664Z,1.77
2018-01-07T16:24:41.675Z,1.77
2018-01-07T16:25:41.685Z,1.81
2018-01-07T16:26:41.696Z,1.76
2018-01-07T16:27:41.707Z,1.73
2018-01-07T16:28:41.714Z,1.80
2018-01-07T16:29:41.729Z,1.77
2018-01-07T16:30:41.738Z,1.73
2018-01-07T16:31:41.744Z,1.79
2018-01-07T16:32:41.762Z,1.77
2018-01-07T16:33:41.769Z,1.79
2018-01-07T16:34:41.776Z,1.80
2018-01-07T16:35:41.788Z,1.69
2018-01-07T16:36:41.810Z,1.77
2018-01-07T16:37:41.805Z,1.72
2018-01-07T16:38:41.815Z,1.73
2018-01-07T16:39:41.829Z,1.72
2018-01-07T16:40:41.836Z,1.73
2018-01-07T16:41:41.848Z,1.76
2018-01-07T16:42:41.856Z,1.59
2018-01-07T16:43:41.864Z,1.73
2018-01-07T16:44:41.873Z,1.70
2018-01-07T16:45:41.884Z,1.73
2018-01-07T16:46:41.894Z,1.73
2018-01-07T16:47:41.910Z,1.70
2018-01-07T16:48:41.912Z,1.63
2018-01-07T16:49:41.923Z,1.66
2018-01-07T16:50:41.935Z,1.62
2018-01-07T16:51:41.943Z,1.68
2018-01-07T16:52:41.953Z,1.72
2018-01-07T16:53:41.966Z,1.72
2018-01-07T16:54:41.976Z,1.62
2018-01-07T16:55:41.981Z,1.66
2018-01-07T16:56:41.990Z,1.62
2018-01-07T16:57:42.008Z,1.59
2018-01-07T16:58:42.010Z,1.62
2018-01-07T16:59:42.023Z,1.66
2018-01-07T17:00:42.030Z,1.63
2018-01-07T17:01:42.039Z,1.63
2018-01-07T17:02:42.050Z,1.66
2018-01-07T17:03:42.067Z,1.54
2018-01-07T17:04:42.076Z,1.65
2018-01-07T17:05:42.086Z,1.62
2018-01-07T17:06:42.089Z,1.63
2018-01-07T17:07:42.100Z,1.62
2018-01-07T17:08:42.114Z,1.63
2018-01-07T17:09:42.131Z,1.58
2018-01-07T17:10:42.129Z,1.58
2018-01-07T17:11:42.139Z,1.51
2018-01-07T17:12:42.168Z,1.55
2018-01-07T17:13:42.158Z,1.60
2018-01-07T17:14:42.168Z,1.59
2018-01-07T17:15:42.178Z,1.69
2018-01-07T17:16:42.188Z,1.63
2018-01-07T17:17:42.196Z,1.60
2018-01-07T17:18:42.213Z,1.63
2018-01-07T17:19:42.221Z,1.69
2018-01-07T17:20:42.230Z,1.59
2018-01-07T17:21:42.236Z,1.65
2018-01-07T17:22:42.247Z,1.62
2018-01-07T17:23:42.256Z,1.63
2018-01-07T17:24:42.264Z,1.58
2018-01-07T17:25:42.275Z,1.62
2018-01-07T17:26:42.286Z,1.65
2018-01-07T17:27:42.297Z,1.65
2018-01-07T17:28:42.303Z,1.58
2018-01-07T17:29:42.314Z,1.66
2018-01-07T17:30:42.323Z,1.59
2018-01-07T17:31:42.327Z,1.63
2018-01-07T17:32:42.336Z,1.60
2018-01-07T17:33:42.346Z,1.66
2018-01-07T17:34:42.358Z,1.63
2018-01-07T17:35:42.366Z,1.62
2018-01-07T17:36:42.375Z,1.65
2018-01-07T17:37:42.384Z,1.58
2018-01-07T17:38:42.498Z,1.59
2018-01-07T17:39:42.405Z,1.60
2018-01-07T17:40:42.414Z,1.63
2018-01-07T17:41:42.422Z,1.63
2018-01-07T17:42:42.438Z,1.59
2018-01-07T17:43:42.447Z,1.47
2018-01-07T17:44:42.453Z,1.51
2018-01-07T17:45:42.468Z,1.51
2018-01-07T17:46:42.471Z,1.50
2018-01-07T17:47:42.484Z,1.47
2018-01-07T17:48:42.492Z,1.50
2018-01-07T17:49:42.501Z,1.45
2018-01-07T17:50:42.510Z,1.44
2018-01-07T17:51:42.523Z,1.50
2018-01-07T17:52:42.528Z,1.51
2018-01-07T17:53:42.542Z,1.54
2018-01-07T17:54:42.553Z,1.50
2018-01-07T17:55:42.559Z,1.55
2018-01-07T17:56:42.567Z,1.44
2018-01-07T17:57:42.578Z,1.47
2018-01-07T17:58:42.589Z,1.48
2018-01-07T17:59:42.596Z,1.45
2018-01-07T18:00:42.609Z,1.51
2018-01-07T18:01:42.616Z,1.52
2018-01-07T18:02:42.626Z,1.52
2018-01-07T18:03:42.635Z,1.41
2018-01-07T18:04:42.644Z,1.52
2018-01-07T18:05:42.908Z,1.44
2018-01-07T18:06:42.664Z,1.48
2018-01-07T18:07:42.677Z,1.58
2018-01-07T18:08:42.684Z,1.54
2018-01-07T18:09:42.693Z,1.51
2018-01-07T18:10:42.701Z,1.41
2018-01-07T18:11:42.714Z,1.34
2018-01-07T18:12:42.721Z,1.42
2018-01-07T18:13:42.731Z,1.34
2018-01-07T18:14:42.740Z,1.40
2018-01-07T18:15:42.752Z,1.36
2018-01-07T18:16:42.765Z,1.29
2018-01-07T18:17:42.771Z,1.30
2018-01-07T18:18:42.782Z,1.36
2018-01-07T18:19:42.789Z,1.32
2018-01-07T18:20:42.803Z,1.27
2018-01-07T18:21:42.810Z,1.40
2018-01-07T18:22:42.816Z,1.29
2018-01-07T18:23:42.842Z,1.32
2018-01-07T18:24:42.839Z,1.26
2018-01-07T18:25:42.846Z,1.29
2018-01-07T18:26:42.856Z,1.32
2018-01-07T18:27:42.866Z,1.41
2018-01-07T18:28:42.878Z,1.29
2018-01-07T18:29:42.906Z,1.29
2018-01-07T18:30:42.894Z,1.24
2018-01-07T18:31:42.913Z,1.24
2018-01-07T18:32:42.913Z,1.30
2018-01-07T18:33:42.922Z,1.16
2018-01-07T18:34:42.932Z,1.18
2018-01-07T18:35:42.945Z,1.22
2018-01-07T18:36:42.956Z,1.26
2018-01-07T18:37:42.962Z,1.18
2018-01-07T18:38:42.975Z,1.27
2018-01-07T18:39:42.982Z,1.16
2018-01-07T18:40:42.991Z,1.20
2018-01-07T18:41:42.999Z,1.22
2018-01-07T18:42:43.009Z,1.24
2018-01-07T18:43:43.019Z,1.20
2018-01-07T18:44:43.029Z,1.15
2018-01-07T18:45:43.041Z,1.18
2018-01-07T18:46:43.065Z,1.23
2018-01-07T18:47:43.057Z,1.23
2018-01-07T18:48:43.065Z,1.26
2018-01-07T18:49:43.077Z,1.20
2018-01-07T18:50:43.088Z,1.16
2018-01-07T18:51:43.119Z,1.20
2018-01-07T18:52:43.105Z,1.23
2018-01-07T18:53:43.119Z,1.12
2018-01-07T18:54:43.139Z,1.14
2018-01-07T18:55:43.133Z,1.22
2018-01-07T18:56:43.158Z,1.15
2018-01-07T18:57:43.151Z,1.09
2018-01-07T18:58:43.160Z,1.12
2018-01-07T18:59:43.174Z,1.06
2018-01-07T19:00:43.182Z,1.11
2018-01-07T19:01:43.193Z,1.11
2018-01-07T19:02:43.212Z,1.12
2018-01-07T19:03:43.212Z,1.14
2018-01-07T19:04:43.222Z,1.11
2018-01-07T19:05:43.228Z,1.12
2018-01-07T19:06:43.236Z,1.02
2018-01-07T19:07:43.246Z,1.02
2018-01-07T19:08:43.255Z,1.00
2018-01-07T19:09:43.264Z,0.86
2018-01-07T19:10:43.275Z,1.00
2018-01-07T19:11:43.284Z,0.98
2018-01-07T19:12:43.294Z,0.97
2018-01-07T19:13:43.304Z,0.98
2018-01-07T19:14:43.321Z,0.96
2018-01-07T19:15:43.320Z,0.98
2018-01-07T19:16:43.332Z,0.88
2018-01-07T19:17:43.340Z,0.98
2018-01-07T19:18:43.362Z,0.97
2018-01-07T19:19:43.359Z,0.96
2018-01-07T19:20:43.369Z,0.88
2018-01-07T19:21:43.382Z,0.93
2018-01-07T19:22:43.415Z,0.94
2018-01-07T19:23:43.398Z,0.86
2018-01-07T19:24:43.410Z,0.87
2018-01-07T19:25:43.414Z,0.86
2018-01-07T19:26:43.429Z,0.88
2018-01-07T19:27:43.437Z,0.86
2018-01-07T19:28:43.447Z,0.90
2018-01-07T19:29:43.458Z,0.93
2018-01-07T19:30:43.483Z,0.86
2018-01-07T19:31:43.475Z,0.87
2018-01-07T19:32:43.484Z,0.84
2018-01-07T19:33:43.493Z,0.79
2018-01-07T19:34:43.503Z,0.84
2018-01-07T19:35:43.511Z,0.83
2018-01-07T19:36:43.523Z,0.76
2018-01-07T19:37:43.529Z,0.84
2018-01-07T19:38:43.538Z,0.76
2018-01-07T19:39:43.549Z,0.79
2018-01-07T19:40:43.558Z,0.78
2018-01-07T19:41:43.690Z,0.79
2018-01-07T19:42:43.582Z,0.79
2018-01-07T19:43:43.588Z,0.86
2018-01-07T19:44:43.597Z,0.79
2018-01-07T19:45:43.605Z,0.76
2018-01-07T19:46:43.627Z,0.79
2018-01-07T19:47:43.628Z,0.79
2018-01-07T19:48:43.637Z,0.80
2018-01-07T19:49:43.641Z,0.86
2018-01-07T19:50:43.649Z,0.83
2018-01-07T19:51:43.686Z,0.76
2018-01-07T19:52:43.676Z,0.83
2018-01-07T19:53:43.679Z,0.80
2018-01-07T19:54:43.701Z,0.79
2018-01-07T19:55:43.696Z,0.83
2018-01-07T19:56:43.706Z,0.86
2018-01-07T19:57:43.715Z,0.94
2018-01-07T19:58:43.726Z,0.87
2018-01-07T19:59:43.740Z,0.83
2018-01-07T20:00:43.743Z,0.87
2018-01-07T20:01:43.757Z,0.94
2018-01-07T20:02:43.765Z,0.90
2018-01-07T20:03:43.780Z,0.79
2018-01-07T20:04:43.786Z,0.88
2018-01-07T20:05:43.804Z,0.90
2018-01-07T20:06:43.801Z,0.80
2018-01-07T20:07:43.808Z,0.78
2018-01-07T20:08:43.816Z,0.78
2018-01-07T20:09:43.824Z,0.79
2018-01-07T20:10:43.834Z,0.79
2018-01-07T20:11:43.897Z,0.79
2018-01-07T20:12:43.856Z,0.76
2018-01-07T20:13:43.862Z,0.84
2018-01-07T20:14:43.881Z,0.76
2018-01-07T20:15:43.886Z,0.78
2018-01-07T20:16:43.892Z,0.83
2018-01-07T20:17:43.908Z,0.88
2018-01-07T20:18:43.910Z,0.78
2018-01-07T20:19:43.920Z,0.70
2018-01-07T20:20:43.929Z,0.69
2018-01-07T20:21:43.939Z,0.73
2018-01-07T20:22:43.946Z,0.76
2018-01-07T20:23:43.959Z,0.78
2018-01-07T20:24:43.977Z,0.70
2018-01-07T20:25:44.001Z,0.78
2018-01-07T20:26:43.985Z,0.83
2018-01-07T20:27:43.993Z,0.72
2018-01-07T20:28:44.001Z,0.70
2018-01-07T20:29:44.011Z,0.73
2018-01-07T20:30:44.026Z,0.72
2018-01-07T20:31:44.120Z,0.76
2018-01-07T20:32:44.037Z,0.75
2018-01-07T20:33:44.052Z,0.79
2018-01-07T20:34:44.056Z,0.76
2018-01-07T20:35:44.066Z,0.78
2018-01-07T20:36:44.076Z,0.79
2018-01-07T20:37:44.111Z,0.76
2018-01-07T20:38:44.098Z,0.83
2018-01-07T20:39:44.102Z,0.83
2018-01-07T20:40:44.112Z,0.76
2018-01-07T20:41:44.125Z,0.72
2018-01-07T20:42:44.135Z,0.76
2018-01-07T20:43:44.149Z,0.76
2018-01-07T20:44:44.147Z,0.75
2018-01-07T20:45:44.157Z,0.79
2018-01-07T20:46:44.171Z,0.76
2018-01-07T20:47:44.176Z,0.70
2018-01-07T20:48:44.189Z,0.72
2018-01-07T20:49:44.199Z,0.75
2018-01-07T20:50:44.204Z,0.75
2018-01-07T20:51:44.213Z,0.79
2018-01-07T20:52:44.222Z,0.76
2018-01-07T20:53:44.232Z,0.79
2018-01-07T20:54:44.241Z,0.80
2018-01-07T20:55:44.301Z,0.73
2018-01-07T20:56:44.261Z,0.78
2018-01-07T20:57:44.267Z,0.79
2018-01-07T20:58:44.279Z,0.88
2018-01-07T20:59:44.290Z,0.80
2018-01-07T21:00:44.295Z,0.70
2018-01-07T21:01:44.309Z,0.80
2018-01-07T21:02:44.341Z,0.73
2018-01-07T21:03:44.323Z,0.70
2018-01-07T21:04:44.333Z,0.76
2018-01-07T21:05:44.342Z,0.73
2018-01-07T21:06:44.352Z,0.68
2018-01-07T21:07:44.360Z,0.70
2018-01-07T21:08:44.372Z,0.70
2018-01-07T21:09:44.383Z,0.72
2018-01-07T21:10:44.425Z,0.72
2018-01-07T21:11:44.399Z,0.68
2018-01-07T21:12:44.406Z,0.75
2018-01-07T21:13:44.416Z,0.72
2018-01-07T21:14:44.425Z,0.73
2018-01-07T21:15:44.433Z,0.76
2018-01-07T21:16:44.443Z,0.76
2018-01-07T21:17:44.452Z,0.72
2018-01-07T21:18:44.465Z,0.61
2018-01-07T21:19:44.473Z,0.69
2018-01-07T21:20:44.480Z,0.76
2018-01-07T21:21:44.488Z,0.72
2018-01-07T21:22:44.501Z,0.65
2018-01-07T21:23:44.510Z,0.73
2018-01-07T21:24:44.518Z,0.72
2018-01-07T21:25:44.529Z,0.66
2018-01-07T21:26:44.556Z,0.72
2018-01-07T21:27:44.547Z,0.69
2018-01-07T21:28:44.555Z,0.73
2018-01-07T21:29:44.562Z,0.65
2018-01-07T21:30:44.578Z,0.73
2018-01-07T21:31:44.589Z,0.73
2018-01-07T21:32:44.591Z,0.75
2018-01-07T21:33:44.602Z,0.70
2018-01-07T21:34:44.611Z,0.73
2018-01-07T21:35:44.619Z,0.65
2018-01-07T21:36:44.631Z,0.69
2018-01-07T21:37:44.638Z,0.65
2018-01-07T21:38:44.655Z,0.68
2018-01-07T21:39:44.661Z,0.60
2018-01-07T21:40:44.666Z,0.65
2018-01-07T21:41:44.715Z,0.62
2018-01-07T21:42:44.685Z,0.69
2018-01-07T21:43:44.695Z,0.73
2018-01-07T21:44:44.704Z,0.70
2018-01-07T21:45:44.717Z,0.62
2018-01-07T21:46:44.722Z,0.58
2018-01-07T21:47:44.730Z,0.60
2018-01-07T21:48:44.741Z,0.70
2018-01-07T21:49:44.754Z,0.72
2018-01-07T21:50:44.761Z,0.72
2018-01-07T21:51:44.766Z,0.75
2018-01-07T21:52:44.775Z,0.68
2018-01-07T21:53:44.787Z,0.57
2018-01-07T21:54:44.796Z,0.69
2018-01-07T21:55:44.806Z,0.70
2018-01-07T21:56:44.813Z,0.68
2018-01-07T21:57:44.828Z,0.62
2018-01-07T21:58:44.831Z,0.72
2018-01-07T21:59:44.841Z,0.61
2018-01-07T22:00:44.876Z,0.65
2018-01-07T22:01:44.860Z,0.72
2018-01-07T22:02:44.869Z,0.70
2018-01-07T22:03:44.879Z,0.55
2018-01-07T22:04:44.888Z,0.69
2018-01-07T22:05:44.897Z,0.76
2018-01-07T22:06:44.909Z,0.73
2018-01-07T22:07:44.914Z,0.58
2018-01-07T22:08:44.927Z,0.69
2018-01-07T22:09:44.936Z,0.65
2018-01-07T22:10:44.942Z,0.70
2018-01-07T22:11:44.957Z,0.65
2018-01-07T22:12:44.963Z,0.61
2018-01-07T22:13:44.973Z,0.68
2018-01-07T22:14:44.984Z,0.57
2018-01-07T22:15:44.995Z,0.61
2018-01-07T22:16:44.996Z,0.66
2018-01-07T22:17:45.009Z,0.65
2018-01-07T22:18:45.020Z,0.65
2018-01-07T22:19:45.026Z,0.66
2018-01-07T22:20:45.035Z,0.61
2018-01-07T22:21:45.046Z,0.61
2018-01-07T22:22:45.107Z,0.61
2018-01-07T22:23:45.063Z,0.69
2018-01-07T22:24:45.071Z,0.50
2018-01-07T22:25:45.092Z,0.61
2018-01-07T22:26:45.091Z,0.66
2018-01-07T22:27:45.105Z,0.65
2018-01-07T22:28:45.133Z,0.58
2018-01-07T22:29:45.117Z,0.55
2018-01-07T22:30:45.128Z,0.50
2018-01-07T22:31:45.137Z,0.57
2018-01-07T22:32:45.144Z,0.57
2018-01-07T22:33:45.156Z,0.53
2018-01-07T22:34:45.164Z,0.50
2018-01-07T22:35:45.174Z,0.62
2018-01-07T22:36:45.183Z,0.55
2018-01-07T22:37:45.190Z,0.53
2018-01-07T22:38:45.224Z,0.50
2018-01-07T22:39:45.209Z,0.60
2018-01-07T22:40:45.224Z,0.55
2018-01-07T22:41:45.230Z,0.58
2018-01-07T22:42:45.238Z,0.49
2018-01-07T22:43:45.250Z,0.50
2018-01-07T22:44:45.261Z,0.55
2018-01-07T22:45:45.266Z,0.53
2018-01-07T22:46:45.274Z,0.51
2018-01-07T22:47:45.283Z,0.50
2018-01-07T22:48:45.291Z,0.57
2018-01-07T22:49:45.300Z,0.57
2018-01-07T22:50:45.309Z,0.62
2018-01-07T22:51:45.320Z,0.53
2018-01-07T22:52:45.329Z,0.55
2018-01-07T22:53:45.337Z,0.53
2018-01-07T22:54:45.347Z,0.68
2018-01-07T22:55:45.358Z,0.55
2018-01-07T22:56:45.364Z,0.55
2018-01-07T22:57:45.376Z,0.55
2018-01-07T22:58:45.386Z,0.53
2018-01-07T22:59:45.393Z,0.57
2018-01-07T23:00:45.433Z,0.55
2018-01-07T23:01:45.410Z,0.57
2018-01-07T23:02:45.423Z,0.60
2018-01-07T23:03:45.429Z,0.46
2018-01-07T23:04:45.441Z,0.51
2018-01-07T23:05:45.447Z,0.57
2018-01-07T23:06:45.457Z,0.53
2018-01-07T23:07:45.467Z,0.57
2018-01-07T23:08:45.476Z,0.55
2018-01-07T23:09:45.484Z,0.58
2018-01-07T23:10:45.499Z,0.57
2018-01-07T23:11:45.510Z,0.58
2018-01-07T23:12:45.513Z,0.60
2018-01-07T23:13:45.521Z,0.55
2018-01-07T23:14:45.530Z,0.60
2018-01-07T23:15:45.539Z,0.57
2018-01-07T23:16:45.549Z,0.50
2018-01-07T23:17:45.558Z,0.57
2018-01-07T23:18:45.570Z,0.50
2018-01-07T23:19:45.575Z,0.49
2018-01-07T23:20:45.587Z,0.46
2018-01-07T23:21:45.595Z,0.46
2018-01-07T23:22:45.634Z,0.49
2018-01-07T23:23:45.614Z,0.49
2018-01-07T23:24:45.624Z,0.49
2018-01-07T23:25:45.631Z,0.47
2018-01-07T23:26:45.640Z,0.51
2018-01-07T23:27:45.652Z,0.50
2018-01-07T23:28:45.657Z,0.50
2018-01-07T23:29:45.668Z,0.46
2018-01-07T23:30:45.679Z,0.51
2018-01-07T23:31:45.686Z,0.44
2018-01-07T23:32:45.696Z,0.50
2018-01-07T23:33:45.709Z,0.49
2018-01-07T23:34:45.714Z,0.39
2018-01-07T23:35:45.724Z,0.41
2018-01-07T23:36:45.734Z,0.49
2018-01-07T23:37:45.742Z,0.49
2018-01-07T23:38:45.751Z,0.49
2018-01-07T23:39:45.761Z,0.41
2018-01-07T23:40:45.771Z,0.49
2018-01-07T23:41:45.782Z,0.42
2018-01-07T23:42:45.788Z,0.47
2018-01-07T23:43:45.797Z,0.46
2018-01-07T23:44:45.811Z,0.47
2018-01-07T23:45:45.820Z,0.41
2018-01-07T23:46:45.829Z,0.49
2018-01-07T23:47:45.836Z,0.46
2018-01-07T23:48:45.843Z,0.42
2018-01-07T23:49:45.852Z,0.49
2018-01-07T23:51:45.870Z,0.42
2018-01-07T23:52:45.891Z,0.39
2018-01-07T23:53:45.889Z,0.38
2018-01-07T23:54:45.899Z,0.39
2018-01-07T23:55:45.913Z,0.41
2018-01-07T23:56:45.915Z,0.51
2018-01-07T23:57:45.925Z,0.51
2018-01-07T23:58:45.936Z,0.53
2018-01-07T23:59:45.944Z,0.38
